createdAt,value
2022-09-19T00:01:58.916Z,8.02
2022-09-19T00:04:34.452Z,8.04
2022-09-19T00:07:03.089Z,8.06
2022-09-19T00:09:33.843Z,8.07
2022-09-19T00:12:12.319Z,8.08
2022-09-19T00:14:40.954Z,8.08
2022-09-19T00:17:09.300Z,8.08
2022-09-19T00:19:39.138Z,8.07
2022-09-19T00:22:11.527Z,8.04
2022-09-19T00:24:50.739Z,8.01
2022-09-19T00:27:30.464Z,7.96
2022-09-19T00:29:59.977Z,7.93
2022-09-19T00:32:29.218Z,7.90
2022-09-19T00:34:57.502Z,7.86
2022-09-19T00:37:25.842Z,7.83
2022-09-19T00:39:55.467Z,7.81
2022-09-19T00:42:26.586Z,7.78
2022-09-19T00:44:59.267Z,7.75
2022-09-19T00:47:43.476Z,7.73
2022-09-19T00:50:28.708Z,7.70
2022-09-19T00:53:12.490Z,7.66
2022-09-19T00:55:41.878Z,7.62
2022-09-19T00:58:40.995Z,7.59
2022-09-19T01:01:09.540Z,7.56
2022-09-19T01:03:38.352Z,7.55
2022-09-19T01:06:37.598Z,7.54
2022-09-19T01:10:04.074Z,7.54
2022-09-19T01:13:22.480Z,7.54
2022-09-19T01:19:09.071Z,7.55
2022-09-19T01:22:09.935Z,7.55
2022-09-19T01:25:39.975Z,7.55
2022-09-19T01:28:23.174Z,7.54
2022-09-19T01:34:53.583Z,7.47
2022-09-19T01:37:32.818Z,7.43
2022-09-19T01:40:06.710Z,7.40
2022-09-19T01:42:35.227Z,7.38
2022-09-19T01:45:03.755Z,7.34
2022-09-19T01:48:06.660Z,7.30
2022-09-19T01:51:01.074Z,7.26
2022-09-19T01:54:00.008Z,7.22
2022-09-19T01:57:25.622Z,7.18
2022-09-19T02:00:14.289Z,7.14
2022-09-19T02:03:30.015Z,7.11
2022-09-19T02:06:41.538Z,7.08
2022-09-19T02:09:33.772Z,7.05
2022-09-19T02:12:04.483Z,7.01
2022-09-19T02:14:36.916Z,6.98
2022-09-19T02:17:09.122Z,6.96
2022-09-19T02:22:38.596Z,6.94
2022-09-19T02:25:15.686Z,6.92
2022-09-19T02:27:51.330Z,6.89
2022-09-19T02:30:21.400Z,6.89
2022-09-19T02:32:51.809Z,6.88
2022-09-19T02:35:35.880Z,6.86
2022-09-19T02:41:43.613Z,6.84
2022-09-19T02:44:22.582Z,6.86
2022-09-19T02:47:16.048Z,6.86
2022-09-19T02:49:58.274Z,6.88
2022-09-19T02:52:32.282Z,6.89
2022-09-19T02:55:41.663Z,6.92
2022-09-19T02:58:12.602Z,6.95
2022-09-19T03:00:41.496Z,6.98
2022-09-19T03:03:42.114Z,7.02
2022-09-19T03:06:14.095Z,7.05
2022-09-19T03:08:46.419Z,7.09
2022-09-19T03:11:19.809Z,7.13
2022-09-19T03:13:48.212Z,7.18
2022-09-19T03:16:23.817Z,7.22
2022-09-19T03:18:57.182Z,7.28
2022-09-19T03:21:28.425Z,7.33
2022-09-19T03:24:00.080Z,7.38
2022-09-19T03:26:35.306Z,7.43
2022-09-19T03:29:10.234Z,7.47
2022-09-19T03:31:38.618Z,7.49
2022-09-19T03:34:07.448Z,7.51
2022-09-19T03:36:35.721Z,7.51
2022-09-19T03:39:04.223Z,7.52
2022-09-19T03:41:33.064Z,7.51
2022-09-19T03:44:02.851Z,7.52
2022-09-19T03:46:33.092Z,7.51
2022-09-19T03:49:03.541Z,7.51
2022-09-19T03:51:34.687Z,7.51
2022-09-19T03:54:03.039Z,7.53
2022-09-19T03:56:31.461Z,7.54
2022-09-19T03:58:59.967Z,7.56
2022-09-19T04:01:28.213Z,7.57
2022-09-19T04:03:56.669Z,7.51
2022-09-19T04:06:24.929Z,7.41
2022-09-19T04:08:53.219Z,7.24
2022-09-19T04:11:22.092Z,7.10
2022-09-19T04:13:50.500Z,7.02
2022-09-19T04:16:18.996Z,6.94
2022-09-19T04:18:51.405Z,6.91
2022-09-19T04:21:20.026Z,6.91
2022-09-19T04:23:48.356Z,6.90
2022-09-19T04:26:17.632Z,6.89
2022-09-19T04:28:47.081Z,6.89
2022-09-19T04:31:15.720Z,6.89
2022-09-19T04:33:44.125Z,6.88
2022-09-19T04:36:14.143Z,6.91
2022-09-19T04:38:42.405Z,6.94
2022-09-19T04:41:10.971Z,6.97
2022-09-19T04:43:39.246Z,6.99
2022-09-19T04:46:07.710Z,7.01
2022-09-19T04:48:36.161Z,7.03
2022-09-19T04:51:14.135Z,7.04
2022-09-19T04:53:42.591Z,7.11
2022-09-19T04:56:12.351Z,7.19
2022-09-19T04:58:41.853Z,7.28
2022-09-19T05:01:12.152Z,7.36
2022-09-19T05:03:44.932Z,7.43
2022-09-19T05:06:13.652Z,7.49
2022-09-19T05:08:42.091Z,7.54
2022-09-19T05:11:11.417Z,7.57
2022-09-19T05:13:40.335Z,7.62
2022-09-19T05:16:09.223Z,7.65
2022-09-19T05:18:38.751Z,7.67
2022-09-19T05:21:12.109Z,7.70
2022-09-19T05:23:41.202Z,7.71
2022-09-19T05:26:18.353Z,7.73
2022-09-19T05:28:47.171Z,7.77
2022-09-19T05:31:18.181Z,7.79
2022-09-19T05:33:47.833Z,7.80
2022-09-19T05:36:16.187Z,7.82
2022-09-19T05:38:45.448Z,7.85
2022-09-19T05:41:13.731Z,7.89
2022-09-19T05:43:42.026Z,7.93
2022-09-19T05:46:10.534Z,7.98
2022-09-19T05:48:39.181Z,8.01
2022-09-19T05:51:07.807Z,8.05
2022-09-19T05:53:54.722Z,8.09
2022-09-19T05:56:24.231Z,8.15
2022-09-19T05:58:54.365Z,8.20
2022-09-19T06:01:22.927Z,8.25
2022-09-19T06:03:51.278Z,8.28
2022-09-19T06:06:20.175Z,8.33
2022-09-19T06:09:00.085Z,8.35
2022-09-19T06:11:28.619Z,8.39
2022-09-19T06:14:15.221Z,8.44
2022-09-19T06:16:45.149Z,8.48
2022-09-19T06:19:13.497Z,8.54
2022-09-19T06:21:41.746Z,8.59
2022-09-19T06:24:10.356Z,8.65
2022-09-19T06:26:39.086Z,8.71
2022-09-19T06:29:08.233Z,8.75
2022-09-19T06:31:37.287Z,8.78
2022-09-19T06:34:05.604Z,8.83
2022-09-19T06:36:34.019Z,8.86
2022-09-19T06:39:02.269Z,8.86
2022-09-19T06:41:32.066Z,8.87
2022-09-19T06:44:00.334Z,8.90
2022-09-19T06:46:29.126Z,8.96
2022-09-19T06:48:58.130Z,9.01
2022-09-19T06:51:26.607Z,9.06
2022-09-19T06:53:54.861Z,9.12
2022-09-19T06:56:23.176Z,9.17
2022-09-19T06:58:51.545Z,9.21
2022-09-19T07:01:20.037Z,9.25
2022-09-19T07:03:48.477Z,9.30
2022-09-19T07:06:16.770Z,9.33
2022-09-19T07:08:45.276Z,9.36
2022-09-19T07:11:13.615Z,9.39
2022-09-19T07:13:42.014Z,9.42
2022-09-19T07:16:10.542Z,9.44
2022-09-19T07:18:39.204Z,9.47
2022-09-19T07:21:07.497Z,9.48
2022-09-19T07:23:35.790Z,9.50
2022-09-19T07:26:04.885Z,9.55
2022-09-19T07:28:33.803Z,9.60
2022-09-19T07:31:02.332Z,9.65
2022-09-19T07:33:31.418Z,9.73
2022-09-19T07:36:00.258Z,9.80
2022-09-19T07:38:28.967Z,9.88
2022-09-19T07:40:57.372Z,9.93
2022-09-19T07:43:25.904Z,10.00
2022-09-19T07:45:54.563Z,10.04
2022-09-19T07:48:23.503Z,10.06
2022-09-19T07:50:56.090Z,10.06
2022-09-19T07:53:25.789Z,10.05
2022-09-19T07:55:57.488Z,10.09
2022-09-19T07:58:28.090Z,10.17
2022-09-19T08:01:01.212Z,10.29
2022-09-19T08:03:29.573Z,10.46
2022-09-19T08:06:03.054Z,10.62
2022-09-19T08:08:31.364Z,10.74
2022-09-19T08:11:03.566Z,10.84
2022-09-19T08:13:31.885Z,10.97
2022-09-19T08:16:03.258Z,11.07
2022-09-19T08:18:32.435Z,11.13
2022-09-19T08:21:00.683Z,11.11
2022-09-19T08:23:30.473Z,11.04
2022-09-19T08:25:58.876Z,11.02
2022-09-19T08:28:31.184Z,11.04
2022-09-19T08:31:01.343Z,11.09
2022-09-19T08:33:30.674Z,11.13
2022-09-19T08:36:00.664Z,11.15
2022-09-19T08:38:28.978Z,11.16
2022-09-19T08:41:44.543Z,11.18
2022-09-19T08:44:45.977Z,11.17
2022-09-19T08:47:20.601Z,11.11
2022-09-19T08:50:28.461Z,11.05
2022-09-19T08:53:01.920Z,10.94
2022-09-19T08:55:36.624Z,10.90
2022-09-19T08:58:18.635Z,10.88
2022-09-19T09:00:48.828Z,10.91
2022-09-19T09:03:39.356Z,10.94
2022-09-19T09:06:39.425Z,11.03
2022-09-19T09:09:28.110Z,11.19
2022-09-19T09:12:16.364Z,11.33
2022-09-19T09:15:19.827Z,11.45
2022-09-19T09:18:15.265Z,11.58
2022-09-19T09:21:29.230Z,11.84
2022-09-19T09:24:32.987Z,12.29
2022-09-19T09:27:06.380Z,12.61
2022-09-19T09:29:42.241Z,12.85
2022-09-19T09:32:32.343Z,13.09
2022-09-19T09:35:14.131Z,13.10
2022-09-19T09:37:54.431Z,13.01
2022-09-19T09:40:58.776Z,12.97
2022-09-19T09:43:34.774Z,12.93
2022-09-19T09:46:11.802Z,12.84
2022-09-19T09:48:40.543Z,12.76
2022-09-19T09:51:40.469Z,12.71
2022-09-19T09:54:39.826Z,12.70
2022-09-19T09:57:45.094Z,12.69
2022-09-19T10:00:35.298Z,12.69
2022-09-19T10:03:51.691Z,12.64
2022-09-19T10:06:24.716Z,12.62
2022-09-19T10:09:21.444Z,12.65
2022-09-19T10:15:10.540Z,12.79
2022-09-19T10:17:47.317Z,12.77
2022-09-19T10:20:35.973Z,12.75
2022-09-19T10:23:04.320Z,12.77
2022-09-19T10:25:33.003Z,12.79
2022-09-19T10:28:28.434Z,12.82
2022-09-19T10:31:01.798Z,12.78
2022-09-19T10:33:46.512Z,12.71
2022-09-19T10:36:34.747Z,12.70
2022-09-19T10:39:15.910Z,12.71
2022-09-19T10:41:44.891Z,12.73
2022-09-19T10:44:28.080Z,12.74
2022-09-19T10:47:02.624Z,12.75
2022-09-19T10:50:01.655Z,12.75
2022-09-19T10:52:51.396Z,12.78
2022-09-19T10:55:23.900Z,12.81
2022-09-19T10:58:05.038Z,12.81
2022-09-19T11:00:52.719Z,12.82
2022-09-19T11:03:29.858Z,12.80
2022-09-19T11:06:17.434Z,12.75
2022-09-19T11:08:49.208Z,12.67
2022-09-19T11:11:22.230Z,12.57
2022-09-19T11:14:11.434Z,12.50
2022-09-19T11:16:45.902Z,12.46
2022-09-19T11:19:30.136Z,12.43
2022-09-19T11:22:55.111Z,12.40
2022-09-19T11:25:31.834Z,12.40
2022-09-19T11:28:05.931Z,12.42
2022-09-19T11:31:06.737Z,12.47
2022-09-19T11:37:15.236Z,12.49
2022-09-19T11:40:05.197Z,12.49
2022-09-19T11:43:14.436Z,12.49
2022-09-19T11:46:40.393Z,12.45
2022-09-19T11:50:03.320Z,12.44
2022-09-19T11:53:03.470Z,12.34
2022-09-19T11:56:09.417Z,12.29
2022-09-19T11:59:02.181Z,12.33
2022-09-19T12:01:56.686Z,12.40
2022-09-19T12:05:29.579Z,12.45
2022-09-19T12:08:28.749Z,12.47
2022-09-19T12:11:10.215Z,12.50
2022-09-19T12:13:49.982Z,12.52
2022-09-19T12:16:26.214Z,12.49
2022-09-19T12:19:22.310Z,12.50
2022-09-19T12:22:13.104Z,12.48
2022-09-19T12:24:53.652Z,12.45
2022-09-19T12:27:46.319Z,12.38
2022-09-19T12:30:19.327Z,12.33
2022-09-19T12:33:07.453Z,12.27
2022-09-19T12:35:48.974Z,12.19
2022-09-19T12:38:36.464Z,12.10
2022-09-19T12:41:23.884Z,12.04
2022-09-19T12:44:27.308Z,12.01
2022-09-19T12:47:32.645Z,11.98
2022-09-19T12:50:33.169Z,12.00
2022-09-19T12:53:36.730Z,12.08
2022-09-19T12:56:17.646Z,12.20
2022-09-19T12:59:24.753Z,12.39
2022-09-19T13:02:03.323Z,12.65
2022-09-19T13:05:06.479Z,12.85
2022-09-19T13:07:56.349Z,13.03
2022-09-19T13:10:40.663Z,13.15
2022-09-19T13:13:36.509Z,13.27
2022-09-19T13:16:15.192Z,13.37
2022-09-19T13:19:10.368Z,13.44
2022-09-19T13:22:01.184Z,13.52
2022-09-19T13:24:41.854Z,13.54
2022-09-19T13:27:15.110Z,13.49
2022-09-19T13:29:46.975Z,13.38
2022-09-19T13:32:56.189Z,13.31
2022-09-19T13:35:26.125Z,13.25
2022-09-19T13:38:02.334Z,13.20
2022-09-19T13:41:18.117Z,13.11
2022-09-19T13:44:01.574Z,12.99
2022-09-19T13:47:06.346Z,12.90
2022-09-19T13:49:57.381Z,12.83
2022-09-19T13:52:35.346Z,12.78
2022-09-19T13:55:34.355Z,12.74
2022-09-19T13:58:40.102Z,12.68
2022-09-19T14:01:23.950Z,12.63
2022-09-19T14:04:22.534Z,12.60
2022-09-19T14:10:04.996Z,12.54
2022-09-19T14:13:00.672Z,12.53
2022-09-19T14:15:49.930Z,12.50
2022-09-19T14:18:19.794Z,12.48
2022-09-19T14:20:55.440Z,12.48
2022-09-19T14:23:29.446Z,12.47
2022-09-19T14:26:09.379Z,12.47
2022-09-19T14:29:21.316Z,12.48
2022-09-19T14:32:08.626Z,12.50
2022-09-19T14:34:55.448Z,12.54
2022-09-19T14:37:47.982Z,12.59
2022-09-19T14:41:16.508Z,12.65
2022-09-19T14:44:26.857Z,12.65
2022-09-19T14:47:01.675Z,12.67
2022-09-19T14:49:50.732Z,12.68
2022-09-19T14:52:23.791Z,12.70
2022-09-19T14:55:03.553Z,12.71
2022-09-19T14:57:33.183Z,12.72
2022-09-19T15:00:30.264Z,12.74
2022-09-19T15:02:59.826Z,12.74
2022-09-19T15:05:33.337Z,12.74
2022-09-19T15:08:30.998Z,12.73
2022-09-19T15:11:05.310Z,12.72
2022-09-19T15:13:34.611Z,12.72
2022-09-19T15:16:09.918Z,12.72
2022-09-19T15:18:47.382Z,12.72
2022-09-19T15:21:26.682Z,12.69
2022-09-19T15:24:00.130Z,12.69
2022-09-19T15:26:33.592Z,12.70
2022-09-19T15:29:03.813Z,12.72
2022-09-19T15:31:34.517Z,12.77
2022-09-19T15:34:07.246Z,12.81
2022-09-19T15:36:38.289Z,12.87
2022-09-19T15:39:10.378Z,12.96
2022-09-19T15:41:40.870Z,13.14
2022-09-19T15:44:28.518Z,13.77
2022-09-19T15:47:08.204Z,14.65
2022-09-19T15:49:40.713Z,15.31
2022-09-19T15:52:38.306Z,15.70
2022-09-19T15:55:07.662Z,15.90
2022-09-19T15:57:54.191Z,15.96
2022-09-19T16:00:30.026Z,15.81
2022-09-19T16:03:03.364Z,15.60
2022-09-19T16:05:35.639Z,15.38
2022-09-19T16:08:47.812Z,15.18
2022-09-19T16:11:37.684Z,14.93
2022-09-19T16:14:19.396Z,14.68
2022-09-19T16:16:54.939Z,14.43
2022-09-19T16:19:55.370Z,14.23
2022-09-19T16:22:26.160Z,14.00
2022-09-19T16:25:06.175Z,13.82
2022-09-19T16:27:37.240Z,13.65
2022-09-19T16:30:10.638Z,13.52
2022-09-19T16:32:43.266Z,13.40
2022-09-19T16:35:25.612Z,13.30
2022-09-19T16:37:53.969Z,13.19
2022-09-19T16:40:27.738Z,13.10
2022-09-19T16:42:56.350Z,13.02
2022-09-19T16:45:41.561Z,12.93
2022-09-19T16:48:10.303Z,12.85
2022-09-19T16:50:42.206Z,12.78
2022-09-19T16:53:14.500Z,12.70
2022-09-19T16:55:51.210Z,12.65
2022-09-19T16:58:22.569Z,12.59
2022-09-19T17:00:51.431Z,12.55
2022-09-19T17:03:20.695Z,12.51
2022-09-19T17:05:49.833Z,12.47
2022-09-19T17:08:18.463Z,12.44
2022-09-19T17:10:48.271Z,12.41
2022-09-19T17:13:16.844Z,12.38
2022-09-19T17:16:04.950Z,12.36
2022-09-19T17:18:33.617Z,12.33
2022-09-19T17:21:02.366Z,12.29
2022-09-19T17:23:31.439Z,12.25
2022-09-19T17:26:00.635Z,12.21
2022-09-19T17:28:30.609Z,12.16
2022-09-19T17:31:00.289Z,12.11
2022-09-19T17:33:30.264Z,12.06
2022-09-19T17:36:01.138Z,12.01
2022-09-19T17:38:32.108Z,11.95
2022-09-19T17:41:00.905Z,11.88
2022-09-19T17:43:29.565Z,11.82
2022-09-19T17:46:03.714Z,11.74
2022-09-19T17:48:32.458Z,11.67
2022-09-19T17:51:18.109Z,11.61
2022-09-19T17:53:47.299Z,11.53
2022-09-19T17:56:25.184Z,11.46
2022-09-19T17:59:03.176Z,11.40
2022-09-19T18:01:51.593Z,11.35
2022-09-19T18:04:20.179Z,11.28
2022-09-19T18:06:49.076Z,11.23
2022-09-19T18:09:19.897Z,11.17
2022-09-19T18:11:48.234Z,11.14
2022-09-19T18:14:18.081Z,11.09
2022-09-19T18:16:46.966Z,11.07
2022-09-19T18:19:15.402Z,11.04
2022-09-19T18:21:47.128Z,11.01
2022-09-19T18:24:15.570Z,10.99
2022-09-19T18:26:43.844Z,10.97
2022-09-19T18:29:15.824Z,10.95
2022-09-19T18:31:44.553Z,10.93
2022-09-19T18:34:13.562Z,10.91
2022-09-19T18:36:42.131Z,10.88
2022-09-19T18:39:13.430Z,10.86
2022-09-19T18:41:41.967Z,10.84
2022-09-19T18:44:10.373Z,10.81
2022-09-19T18:46:38.681Z,10.80
2022-09-19T18:49:07.324Z,10.77
2022-09-19T18:51:36.237Z,10.75
2022-09-19T18:54:04.887Z,10.74
2022-09-19T18:56:33.989Z,10.71
2022-09-19T18:59:03.614Z,10.71
2022-09-19T19:01:35.937Z,10.70
2022-09-19T19:04:05.678Z,10.69
2022-09-19T19:06:35.351Z,10.69
2022-09-19T19:09:06.167Z,10.69
2022-09-19T19:11:35.124Z,10.68
2022-09-19T19:14:03.815Z,10.68
2022-09-19T19:16:33.565Z,10.68
2022-09-19T19:19:05.055Z,10.67
2022-09-19T19:21:41.666Z,10.67
2022-09-19T19:24:17.274Z,10.66
2022-09-19T19:26:45.906Z,10.67
2022-09-19T19:29:14.296Z,10.67
2022-09-19T19:31:42.889Z,10.66
2022-09-19T19:34:11.368Z,10.66
2022-09-19T19:36:39.746Z,10.66
2022-09-19T19:39:09.302Z,10.65
2022-09-19T19:41:39.008Z,10.64
2022-09-19T19:44:08.070Z,10.63
2022-09-19T19:46:38.541Z,10.62
2022-09-19T19:49:08.588Z,10.60
2022-09-19T19:51:42.411Z,10.59
2022-09-19T19:54:15.704Z,10.58
2022-09-19T19:56:44.709Z,10.57
2022-09-19T19:59:13.412Z,10.54
2022-09-19T20:01:41.975Z,10.52
2022-09-19T20:04:14.880Z,10.50
2022-09-19T20:06:46.486Z,10.47
2022-09-19T20:09:15.478Z,10.43
2022-09-19T20:11:47.108Z,10.40
2022-09-19T20:14:18.022Z,10.36
2022-09-19T20:16:48.510Z,10.33
2022-09-19T20:19:18.076Z,10.31
2022-09-19T20:21:50.769Z,10.28
2022-09-19T20:24:23.953Z,10.26
2022-09-19T20:26:55.758Z,10.23
2022-09-19T20:29:24.799Z,10.21
2022-09-19T20:31:56.636Z,10.19
2022-09-19T20:43:07.836Z,10.10
2022-09-19T20:45:36.259Z,10.06
2022-09-19T20:48:05.819Z,10.03
2022-09-19T20:50:34.600Z,9.99
2022-09-19T20:53:02.878Z,9.95
2022-09-19T20:55:31.558Z,9.92
2022-09-19T20:57:59.821Z,9.88
2022-09-19T21:00:28.054Z,9.84
2022-09-19T21:02:56.401Z,9.80
2022-09-19T21:05:24.680Z,9.76
2022-09-19T21:07:53.276Z,9.72
2022-09-19T21:10:26.046Z,9.67
2022-09-19T21:12:54.309Z,9.63
2022-09-19T21:15:22.742Z,9.59
2022-09-19T21:17:51.647Z,9.56
2022-09-19T21:20:19.901Z,9.53
2022-09-19T21:22:48.208Z,9.50
2022-09-19T21:25:16.652Z,9.48
2022-09-19T21:27:44.980Z,9.47
2022-09-19T21:30:14.143Z,9.44
2022-09-19T21:32:43.248Z,9.41
2022-09-19T21:35:11.677Z,9.39
2022-09-19T21:37:40.010Z,9.37
2022-09-19T21:40:09.593Z,9.35
2022-09-19T21:42:37.931Z,9.32
2022-09-19T21:45:06.960Z,9.30
2022-09-19T21:47:35.251Z,9.28
2022-09-19T21:50:03.823Z,9.26
2022-09-19T21:52:32.085Z,9.25
2022-09-19T21:55:02.814Z,9.22
2022-09-19T21:57:31.451Z,9.21
2022-09-19T22:00:00.671Z,9.20
2022-09-19T22:02:29.070Z,9.18
2022-09-19T22:04:57.418Z,9.17
2022-09-19T22:07:25.696Z,9.16
2022-09-19T22:09:54.103Z,9.16
2022-09-19T22:12:22.462Z,9.15
2022-09-19T22:14:50.715Z,9.15
2022-09-19T22:17:19.008Z,9.15
2022-09-19T22:19:47.294Z,9.14
2022-09-19T22:22:15.580Z,9.14
2022-09-19T22:24:43.986Z,9.16
2022-09-19T22:27:12.279Z,9.16
2022-09-19T22:29:40.541Z,9.17
2022-09-19T22:32:08.767Z,9.17
2022-09-19T22:34:38.402Z,9.18
2022-09-19T22:37:06.710Z,9.19
2022-09-19T22:39:35.104Z,9.19
2022-09-19T22:42:05.311Z,9.19
2022-09-19T22:44:33.812Z,9.20
2022-09-19T22:47:02.206Z,9.21
2022-09-19T22:49:30.431Z,9.24
2022-09-19T22:51:58.735Z,9.26
2022-09-19T22:54:29.351Z,9.29
2022-09-19T22:56:58.040Z,9.32
2022-09-19T22:59:26.340Z,9.34
2022-09-19T23:01:54.722Z,9.37
2022-09-19T23:04:24.439Z,9.38
2022-09-19T23:06:52.776Z,9.40
2022-09-19T23:09:21.071Z,9.42
2022-09-19T23:11:49.519Z,9.44
2022-09-19T23:14:24.362Z,9.45
2022-09-19T23:16:54.480Z,9.46
2022-09-19T23:19:27.307Z,9.47
2022-09-19T23:22:01.114Z,9.47
2022-09-19T23:24:31.431Z,9.48
2022-09-19T23:27:00.759Z,9.49
2022-09-19T23:29:32.155Z,9.49
2022-09-19T23:32:02.339Z,9.49
2022-09-19T23:34:30.672Z,9.49
2022-09-19T23:36:59.182Z,9.49
2022-09-19T23:39:27.481Z,9.49
2022-09-19T23:41:55.846Z,9.48
2022-09-19T23:44:24.115Z,9.46
2022-09-19T23:46:52.376Z,9.45
2022-09-19T23:49:20.826Z,9.43
2022-09-19T23:51:49.086Z,9.42
2022-09-19T23:54:17.362Z,9.40
2022-09-19T23:56:45.669Z,9.38
2022-09-19T23:59:13.936Z,9.35
